Pagina principale
METAR-TAF:

METAR-TAF

Aeroporti :

Aeroporto di Cuneo-Levaldigi

Cuneo, Italia

latitudine: 44-32-47N, longitudine: 007-37-20E, altezza: 386 m

Osservazione

Il bollettino è stato emesso 3 ore e 51 minuti fa, alle 18:50 UTC
Vento 2 kt da direzioni variabili
Temperature 21°C
Umidità 94%
Pressione 1018 hPa
Visibilità 10 km o più
Poco nuvoloso ad un'altezza di 2000 ft
Nuvoloso ad un'altezza di 6000 ft

METAR: LIMZ 201850Z VRB02KT 9999 FEW020 BKN060 21/20 Q1018

Ora: 00:41 (22:41 UTC)

Previsione

Il bollettino è stato emesso 5 ore e 41 minuti fa, alle 17:00 UTC
Previsione valida dal 20 alle 18 UTC al 21 alle 18 UTC
Vento 5 kt da direzioni variabili
Visibilità 10 km o più
Nubi sparse ad un'altezza di 5000 ft
Probabilità 40% :
Temporaneamente
dal 20 alle 18 UTC al 21 alle 03 UTC
temporale, pioggia

TAF: LIMZ 201700Z 2018/2118 VRB05KT 9999 SCT050 PROB40 TEMPO 2018/2103 TSRA

Osservazioni e previsioni meteorologiche di più di 4000 aeroporti (messaggi METAR e TAF).

Le stazioni disponibili sono rappresentate dai dischi gialli e rossi sulla carta.

Puntare il mouse per vedere il nome della stazione.

Clicca sopra per visualizzare le osservazioni e previsioni meteorologiche.

Per cambiare la mappa : fare clic sui pulsanti verdi con una croce nera per ingrandire, il pulsante verde con un trattino per diminuire, o sulla freccia verde per le mappe adiacenti.


METAR-TAF: